HomeShort term forecast

Short term forecast

Graphical weather forecast for the next 48 hours for Montreal:
Short term forecast
This weather forecast is automatically refreshed every 3 hours.

Hourly Experimental Forecast for the next 48 hours

Overall summary: Rain until tonight, starting again tomorrow evening.

 Date & Hour   Temp   Feel   Baro   Hum   Speed & Bearing   Wind Gust   Precip.%   Precip.   Visibility   Cloud cover   Conditions 
 16/10/2021 - 11:00  20.4°C  20.9°C  999.8 hPa  94%  22.3 km/h   40.5 km/h  97%  0.97 mm/h  16.1km  81%  Rain 
 16/10/2021 - 12:00  20.6°C  21.2°C  998.9 hPa  95%  23.9 km/h   42.5 km/h  54%  1.27 mm/h  16.1km  83%  Rain 
 16/10/2021 - 13:00  20.3°C  20.8°C  997.6 hPa  96%  23.8 km/h   43.2 km/h  70%  2.91 mm/h  16.1km  91%  Rain 
 16/10/2021 - 14:00  20.1°C  20.7°C  996.4 hPa  94%  24.0 km/h   45.0 km/h  48%  0.89 mm/h  16.1km  100%  Possible Light Rain 
 16/10/2021 - 15:00  19.8°C  20.3°C  996.2 hPa  93%  24.7 km/h   45.6 km/h  60%  1.34 mm/h  14.7km  100%  Rain 
 16/10/2021 - 16:00  18.5°C  18.9°C  997.3 hPa  93%  24.9 km/h   41.4 km/h  81%  4.60 mm/h  9.6km  100%  Rain 
 16/10/2021 - 17:00  17.5°C  17.7°C  998.4 hPa  92%  24.6 km/h   42.9 km/h  75%  2.05 mm/h  11.6km  100%  Rain 
 16/10/2021 - 18:00  16.9°C  17.0°C  999.5 hPa  92%  22.8 km/h   43.5 km/h  71%  1.70 mm/h  12.2km  99%  Rain 
 16/10/2021 - 19:00  16.5°C  16.5°C  999.8 hPa  90%  20.1 km/h   41.4 km/h  67%  1.46 mm/h  12.0km  100%  Rain 
 16/10/2021 - 20:00  16.1°C  16.1°C  1000.0 hPa  88%  19.1 km/h   43.0 km/h  65%  1.09 mm/h  12.1km  100%  Rain 
 16/10/2021 - 21:00  15.7°C  15.7°C  1000.5 hPa  86%  19.2 km/h   40.5 km/h  55%  0.55 mm/h  16.1km  100%  Possible Light Rain 
 16/10/2021 - 22:00  15.0°C  15.0°C  1001.2 hPa  84%  20.8 km/h   40.2 km/h  43%  0.21 mm/h  16.1km  100%  Possible Drizzle 
 16/10/2021 - 23:00  14.5°C  14.5°C  1002.0 hPa  84%  21.9 km/h   39.3 km/h  30%  0.12 mm/h  16.1km  92%  Possible Drizzle 
 17/10/2021 - 00:00  13.8°C  13.8°C  1002.7 hPa  84%  22.3 km/h   41.9 km/h  29%  0.11 mm/h  16.1km  84%  Possible Drizzle 
 17/10/2021 - 01:00  13.2°C  13.2°C  1003.4 hPa  84%  21.7 km/h   40.5 km/h  26%  0.08 mm/h  16.1km  71%  Possible Drizzle 
 17/10/2021 - 02:00  12.6°C  12.6°C  1004.1 hPa  85%  21.3 km/h   39.5 km/h  19%  0.06 mm/h  16.1km  62%  Mostly Cloudy 
 17/10/2021 - 03:00  11.9°C  11.9°C  1003.7 hPa  87%  20.4 km/h   38.3 km/h  0%  --  16.1km  45%  Partly Cloudy 
 17/10/2021 - 04:00  11.2°C  11.2°C  1004.1 hPa  89%  19.1 km/h   37.8 km/h  0%  --  16.1km  40%  Partly Cloudy 
 17/10/2021 - 05:00  10.3°C  10.3°C  1004.5 hPa  91%  17.6 km/h   35.9 km/h  0%  --  16.1km  31%  Clear 
 17/10/2021 - 06:00  9.5°C  7.2°C  1004.9 hPa  94%  16.1 km/h   34.5 km/h  0%  --  16.1km  30%  Clear 
 17/10/2021 - 07:00  8.7°C  6.3°C  1005.4 hPa  97%  14.7 km/h   32.7 km/h  0%  --  16.1km  36%  Partly Cloudy 
 17/10/2021 - 08:00  8.9°C  6.7°C  1006.1 hPa  97%  13.8 km/h   29.1 km/h  0%  --  16.1km  33%  Partly Cloudy 
 17/10/2021 - 09:00  9.7°C  7.7°C  1006.2 hPa  96%  14.0 km/h   25.6 km/h  0%  --  16.1km  24%  Clear 
 17/10/2021 - 10:00  11.1°C  11.1°C  1006.0 hPa  92%  14.4 km/h   23.1 km/h  0%  --  16.1km  23%  Clear 
 17/10/2021 - 11:00  12.4°C  12.4°C  1005.8 hPa  87%  14.8 km/h   21.7 km/h  0%  --  16.1km  30%  Clear 
 17/10/2021 - 12:00  13.6°C  13.6°C  1005.6 hPa  81%  14.8 km/h   21.6 km/h  6%  0.01 mm/h  16.1km  30%  Clear 
 17/10/2021 - 13:00  14.4°C  14.4°C  1005.3 hPa  76%  14.8 km/h   22.1 km/h  11%  0.03 mm/h  16.1km  30%  Clear 
 17/10/2021 - 14:00  14.8°C  14.8°C  1004.7 hPa  72%  15.0 km/h   22.7 km/h  13%  0.05 mm/h  16.1km  48%  Partly Cloudy 
 17/10/2021 - 15:00  14.6°C  14.6°C  1004.5 hPa  73%  15.3 km/h   23.1 km/h  18%  0.08 mm/h  16.1km  63%  Mostly Cloudy 
 17/10/2021 - 16:00  14.1°C  14.1°C  1004.6 hPa  75%  15.4 km/h   23.7 km/h  23%  0.12 mm/h  16.1km  74%  Mostly Cloudy 
 17/10/2021 - 17:00  13.4°C  13.4°C  1004.8 hPa  79%  15.2 km/h   24.2 km/h  26%  0.15 mm/h  16.1km  95%  Possible Drizzle 
 17/10/2021 - 18:00  12.6°C  12.6°C  1005.2 hPa  80%  14.7 km/h   25.7 km/h  25%  0.12 mm/h  16.1km  88%  Possible Drizzle 
 17/10/2021 - 19:00  12.0°C  12.0°C  1005.8 hPa  80%  13.5 km/h   25.4 km/h  16%  0.04 mm/h  16.1km  84%  Mostly Cloudy 
 17/10/2021 - 20:00  11.5°C  11.5°C  1006.2 hPa  80%  13.5 km/h   25.3 km/h  11%  0.02 mm/h  16.1km  83%  Mostly Cloudy 
 17/10/2021 - 21:00  11.2°C  11.2°C  1006.3 hPa  80%  13.4 km/h   24.4 km/h  10%  0.01 mm/h  16.1km  86%  Mostly Cloudy 
 17/10/2021 - 22:00  10.8°C  10.8°C  1006.6 hPa  80%  13.5 km/h   23.6 km/h  13%  0.03 mm/h  16.1km  94%  Overcast 
 17/10/2021 - 23:00  10.4°C  10.4°C  1006.8 hPa  81%  13.5 km/h   23.3 km/h  11%  0.03 mm/h  16.1km  82%  Mostly Cloudy 
 18/10/2021 - 00:00  9.8°C  7.9°C  1006.9 hPa  82%  13.4 km/h   23.3 km/h  10%  0.03 mm/h  16.1km  86%  Mostly Cloudy 
 18/10/2021 - 01:00  9.2°C  7.2°C  1007.0 hPa  84%  13.3 km/h   23.6 km/h  13%  0.06 mm/h  16.1km  77%  Mostly Cloudy 
 18/10/2021 - 02:00  8.7°C  6.6°C  1007.0 hPa  87%  12.9 km/h   26.4 km/h  13%  0.07 mm/h  16.1km  62%  Mostly Cloudy 
 18/10/2021 - 03:00  8.2°C  6.1°C  1007.0 hPa  89%  12.5 km/h   26.1 km/h  12%  0.08 mm/h  16.1km  53%  Partly Cloudy 
 18/10/2021 - 04:00  7.7°C  5.6°C  1007.2 hPa  92%  12.2 km/h   24.8 km/h  10%  0.06 mm/h  16.1km  59%  Partly Cloudy 
 18/10/2021 - 05:00  7.2°C  5.0°C  1007.5 hPa  95%  11.8 km/h   22.6 km/h  8%  0.04 mm/h  16.1km  46%  Partly Cloudy 
 18/10/2021 - 06:00  6.7°C  4.3°C  1007.9 hPa  97%  12.0 km/h   21.1 km/h  6%  0.02 mm/h  16.1km  61%  Mostly Cloudy 
 18/10/2021 - 07:00  6.1°C  3.5°C  1007.7 hPa  99%  12.8 km/h   21.0 km/h  0%  --  16.1km  70%  Mostly Cloudy 
 18/10/2021 - 08:00  6.2°C  3.4°C  1008.7 hPa  100%  14.1 km/h   21.0 km/h  7%  0.01 mm/h  16.1km  75%  Mostly Cloudy 
 18/10/2021 - 09:00  6.8°C  4.1°C  1009.0 hPa  98%  14.8 km/h   20.0 km/h  6%  0.01 mm/h  16.1km  85%  Mostly Cloudy 
 18/10/2021 - 10:00  7.6°C  4.9°C  1009.0 hPa  95%  15.3 km/h   19.9 km/h  5%  0.01 mm/h  16.1km  68%  Mostly Cloudy 

 

Past weather and reports

Past weatherFind in this section the past weather conditions, weather archive, graphics, reports and statistics.

Current conditions

Current weather condition for MontrealAll you need to know about the current weather conditions for Montreal. Weather data is updated every 10 minutes.

Weather forecast

Current Montreal weatherSince 2004, celinium.com website has provided accurate weather forecast for Montreal's island.